Baiyin, China
Current Conditions -  °F | °C
As of 9:00 PM on Monday 20 Oct 2014 (Local Time) from ZLLL Reporting Station
Scattered Clouds Scattered Clouds  
Wind Chill: 39°   Ceiling: Unl
Heat Index: 43°   Visibility: 6mi
Dew Point: 41°   Wind: 7mph
Humidity: 93%   Direction: 310°NW
Pressure: 30.3"   Gusts: NA
Location:  36.53°N, 104.2°E
Report Text: ZLLL 201300Z 31003MPS 9999 SCT046 06/05 Q1026 RETS NOSIG
Loading
Personal Weather Stations






























Interactive Weather Map
Tropical Storm Tracking
New forecast layout! Learn more

10-Day Weather Forecast

Advertisements
Track Severe Weather on mobile